createdAt,value
2022-12-28T00:00:09.980Z,2.40
2022-12-28T00:02:39.964Z,2.30
2022-12-28T00:05:07.060Z,3.00
2022-12-28T00:07:34.311Z,2.70
2022-12-28T00:10:01.358Z,3.70
2022-12-28T00:12:29.406Z,2.70
2022-12-28T00:14:56.370Z,3.10
2022-12-28T00:17:23.364Z,3.30
2022-12-28T00:19:50.413Z,2.60
2022-12-28T00:22:17.420Z,3.20
2022-12-28T00:24:44.474Z,2.40
2022-12-28T00:27:11.408Z,2.70
2022-12-28T00:29:38.453Z,3.00
2022-12-28T00:32:05.663Z,3.50
2022-12-28T00:34:32.616Z,2.60
2022-12-28T00:37:09.696Z,2.20
2022-12-28T00:39:40.704Z,3.10
2022-12-28T00:42:07.625Z,2.80
2022-12-28T00:44:34.516Z,2.30
2022-12-28T00:47:01.507Z,3.40
2022-12-28T00:49:28.403Z,2.40
2022-12-28T00:51:55.389Z,4.20
2022-12-28T00:54:23.037Z,2.50
2022-12-28T00:56:49.996Z,3.10
2022-12-28T00:59:17.660Z,2.70
2022-12-28T01:01:44.686Z,3.30
2022-12-28T01:04:11.974Z,2.30
2022-12-28T01:06:40.079Z,3.10
2022-12-28T01:09:07.092Z,2.60
2022-12-28T01:11:34.028Z,3.80
2022-12-28T01:14:01.836Z,3.20
2022-12-28T01:16:30.761Z,3.50
2022-12-28T01:18:59.493Z,3.50
2022-12-28T01:21:28.201Z,2.90
2022-12-28T01:23:56.644Z,3.70
2022-12-28T01:26:24.599Z,4.20
2022-12-28T01:28:51.588Z,2.90
2022-12-28T01:31:19.400Z,3.20
2022-12-28T01:33:46.537Z,3.10
2022-12-28T01:36:15.559Z,2.60
2022-12-28T01:38:43.416Z,2.70
2022-12-28T01:41:11.437Z,3.10
2022-12-28T01:43:43.248Z,2.50
2022-12-28T01:46:12.191Z,3.00
2022-12-28T01:48:44.144Z,2.30
2022-12-28T01:51:12.271Z,2.10
2022-12-28T01:53:39.111Z,3.40
2022-12-28T01:56:06.309Z,2.40
2022-12-28T01:58:33.434Z,2.80
2022-12-28T02:01:01.354Z,2.30
2022-12-28T02:03:29.463Z,2.50
2022-12-28T02:05:57.825Z,3.20
2022-12-28T02:08:27.716Z,2.90
2022-12-28T02:10:54.601Z,3.00
2022-12-28T02:13:22.413Z,3.10
2022-12-28T02:15:49.500Z,2.70
2022-12-28T02:18:17.569Z,2.30
2022-12-28T02:20:57.222Z,2.60
2022-12-28T02:23:27.948Z,2.50
2022-12-28T02:26:09.891Z,2.70
2022-12-28T02:29:13.447Z,2.20
2022-12-28T02:31:48.485Z,2.40
2022-12-28T02:34:25.875Z,2.70
2022-12-28T02:36:55.953Z,2.50
2022-12-28T02:39:44.855Z,2.00
2022-12-28T02:42:11.929Z,2.40
2022-12-28T02:44:57.910Z,3.50
2022-12-28T02:47:43.751Z,3.10
2022-12-28T02:50:12.303Z,3.40
2022-12-28T02:53:15.289Z,2.50
2022-12-28T02:56:08.196Z,2.10
2022-12-28T02:59:15.913Z,2.70
2022-12-28T03:02:11.101Z,3.10
2022-12-28T03:04:49.526Z,2.20
2022-12-28T03:07:40.030Z,1.90
2022-12-28T03:11:19.464Z,2.50
2022-12-28T03:13:56.858Z,3.40
2022-12-28T03:16:28.874Z,2.60
2022-12-28T03:19:25.470Z,3.30
2022-12-28T03:22:12.898Z,2.40
2022-12-28T03:25:01.470Z,3.00
2022-12-28T03:27:48.244Z,2.80
2022-12-28T03:30:38.392Z,2.10
2022-12-28T03:33:05.955Z,3.00
2022-12-28T03:36:13.328Z,3.10
2022-12-28T03:39:10.039Z,3.00
2022-12-28T03:42:19.671Z,3.90
2022-12-28T03:44:50.914Z,3.00
2022-12-28T03:47:18.091Z,3.40
2022-12-28T03:49:45.829Z,3.30
2022-12-28T03:52:12.911Z,2.90
2022-12-28T03:54:40.840Z,3.00
2022-12-28T03:57:08.472Z,2.70
2022-12-28T03:59:38.593Z,3.00
2022-12-28T04:02:05.845Z,2.50
2022-12-28T04:04:33.431Z,2.80
2022-12-28T04:07:00.522Z,2.50
2022-12-28T04:09:27.635Z,2.50
2022-12-28T04:11:54.832Z,3.50
2022-12-28T04:14:27.570Z,2.30
2022-12-28T04:16:54.774Z,3.10
2022-12-28T04:19:21.785Z,1.90
2022-12-28T04:21:48.994Z,2.70
2022-12-28T04:24:15.928Z,3.20
2022-12-28T04:26:43.006Z,2.50
2022-12-28T04:29:10.355Z,2.60
2022-12-28T04:31:58.187Z,3.70
2022-12-28T04:34:25.693Z,2.50
2022-12-28T04:37:12.977Z,2.60
2022-12-28T04:39:54.662Z,2.50
2022-12-28T04:42:24.767Z,3.50
2022-12-28T04:44:51.724Z,3.90
2022-12-28T04:47:18.634Z,3.40
2022-12-28T04:49:45.519Z,2.90
2022-12-28T04:52:12.427Z,3.00
2022-12-28T04:54:39.342Z,3.40
2022-12-28T04:57:07.071Z,3.10
2022-12-28T04:59:34.066Z,2.00
2022-12-28T05:02:01.121Z,2.20
2022-12-28T05:04:28.153Z,3.10
2022-12-28T05:06:55.058Z,3.10
2022-12-28T05:09:22.068Z,3.80
2022-12-28T05:11:48.988Z,3.70
2022-12-28T05:14:15.993Z,3.50
2022-12-28T05:16:42.900Z,3.20
2022-12-28T05:19:09.794Z,3.40
2022-12-28T05:21:36.781Z,3.80
2022-12-28T05:24:04.268Z,4.10
2022-12-28T05:26:31.212Z,3.20
2022-12-28T05:28:59.024Z,3.50
2022-12-28T05:31:26.523Z,2.90
2022-12-28T05:33:54.057Z,3.60
2022-12-28T05:36:25.597Z,3.70
2022-12-28T05:38:53.424Z,3.10
2022-12-28T05:41:25.156Z,4.00
2022-12-28T05:43:52.330Z,4.00
2022-12-28T05:46:21.198Z,3.90
2022-12-28T05:48:48.292Z,3.00
2022-12-28T05:51:17.334Z,3.40
2022-12-28T05:53:44.428Z,4.60
2022-12-28T05:56:16.391Z,3.20
2022-12-28T05:58:44.227Z,3.60
2022-12-28T06:01:17.204Z,4.40
2022-12-28T06:03:44.913Z,2.60
2022-12-28T06:06:13.864Z,3.70
2022-12-28T06:08:41.216Z,3.00
2022-12-28T06:11:09.625Z,4.30
2022-12-28T06:13:36.817Z,3.60
2022-12-28T06:16:08.096Z,3.40
2022-12-28T06:18:35.252Z,3.60
2022-12-28T06:21:07.596Z,4.00
2022-12-28T06:23:34.624Z,2.30
2022-12-28T06:26:02.572Z,4.20
2022-12-28T06:28:29.479Z,4.60
2022-12-28T06:31:11.283Z,2.30
2022-12-28T06:33:38.232Z,3.60
2022-12-28T06:36:05.955Z,3.90
2022-12-28T06:38:34.503Z,4.00
2022-12-28T06:41:13.310Z,3.70
2022-12-28T06:43:41.992Z,2.80
2022-12-28T06:46:09.404Z,3.40
2022-12-28T06:48:36.833Z,3.10
2022-12-28T06:51:08.630Z,3.50
2022-12-28T06:53:37.050Z,2.70
2022-12-28T06:56:15.036Z,3.60
2022-12-28T06:58:42.271Z,3.60
2022-12-28T07:01:16.983Z,3.70
2022-12-28T07:03:45.013Z,2.60
2022-12-28T07:06:13.037Z,3.00
2022-12-28T07:08:40.503Z,3.50
2022-12-28T07:11:09.616Z,2.70
2022-12-28T07:13:36.542Z,2.70
2022-12-28T07:16:04.953Z,2.80
2022-12-28T07:18:32.989Z,3.60
2022-12-28T07:21:03.716Z,2.40
2022-12-28T07:23:31.586Z,2.50
2022-12-28T07:25:58.832Z,2.70
2022-12-28T07:28:25.889Z,3.60
2022-12-28T07:30:52.964Z,3.20
2022-12-28T07:33:19.944Z,3.40
2022-12-28T07:35:46.842Z,3.20
2022-12-28T07:38:17.951Z,3.40
2022-12-28T07:40:48.129Z,3.90
2022-12-28T07:43:15.138Z,4.20
2022-12-28T07:45:42.103Z,4.10
2022-12-28T07:48:09.131Z,3.30
2022-12-28T07:50:38.116Z,3.20
2022-12-28T07:53:05.309Z,2.90
2022-12-28T07:55:32.286Z,3.10
2022-12-28T07:57:59.212Z,3.10
2022-12-28T08:00:26.474Z,3.20
2022-12-28T08:02:56.527Z,4.10
2022-12-28T08:05:23.593Z,4.20
2022-12-28T08:07:50.626Z,4.30
2022-12-28T08:10:17.505Z,4.70
2022-12-28T08:12:44.323Z,3.70
2022-12-28T08:15:11.556Z,3.10
2022-12-28T08:17:38.611Z,3.50
2022-12-28T08:20:06.250Z,3.00
2022-12-28T08:22:33.741Z,3.80
2022-12-28T08:25:00.646Z,2.90
2022-12-28T08:27:27.532Z,3.70
2022-12-28T08:29:54.655Z,3.00
2022-12-28T08:32:21.553Z,4.50
2022-12-28T08:34:48.450Z,3.60
2022-12-28T08:37:15.342Z,4.20
2022-12-28T08:39:42.243Z,3.10
2022-12-28T08:42:09.170Z,4.40
2022-12-28T08:44:36.048Z,3.50
2022-12-28T08:47:03.017Z,4.00
2022-12-28T08:49:30.114Z,3.50
2022-12-28T08:51:57.097Z,3.00
2022-12-28T08:54:24.203Z,3.80
2022-12-28T08:56:52.997Z,2.80
2022-12-28T08:59:19.937Z,3.00
2022-12-28T09:01:47.487Z,2.60
2022-12-28T09:04:21.920Z,3.80
2022-12-28T09:06:49.233Z,3.30
2022-12-28T09:09:17.595Z,3.30
2022-12-28T09:11:44.915Z,2.50
2022-12-28T09:14:20.386Z,3.30
2022-12-28T09:16:49.434Z,3.30
2022-12-28T09:19:16.498Z,2.30
2022-12-28T09:21:45.106Z,2.20
2022-12-28T09:24:12.879Z,3.10
2022-12-28T09:26:40.020Z,3.00
2022-12-28T09:29:09.046Z,2.80
2022-12-28T09:31:37.596Z,1.90
2022-12-28T09:36:52.654Z,2.50
2022-12-28T09:39:21.021Z,2.50
2022-12-28T09:41:55.205Z,4.10
2022-12-28T09:44:53.820Z,2.30
2022-12-28T09:47:23.839Z,3.10
2022-12-28T09:50:09.838Z,3.10
2022-12-28T09:52:37.507Z,3.10
2022-12-28T09:55:12.630Z,3.30
2022-12-28T09:57:42.527Z,2.80
2022-12-28T10:00:17.058Z,2.90
2022-12-28T10:02:45.931Z,3.30
2022-12-28T10:05:13.045Z,3.70
2022-12-28T10:07:39.889Z,3.50
2022-12-28T10:10:07.475Z,3.10
2022-12-28T10:12:34.371Z,3.00
2022-12-28T10:15:01.508Z,2.80
2022-12-28T10:17:30.477Z,2.60
2022-12-28T10:19:58.276Z,3.20
2022-12-28T10:22:25.817Z,3.60
2022-12-28T10:24:52.864Z,2.50
2022-12-28T10:27:30.595Z,3.60
2022-12-28T10:29:59.450Z,2.70
2022-12-28T10:32:26.520Z,2.60
2022-12-28T10:35:01.101Z,3.00
2022-12-28T10:37:30.460Z,2.90
2022-12-28T10:39:59.198Z,2.60
2022-12-28T10:42:29.739Z,2.40
2022-12-28T10:45:00.802Z,2.80
2022-12-28T10:47:35.763Z,2.70
2022-12-28T10:50:36.040Z,3.30
2022-12-28T10:52:58.016Z,2.50
2022-12-28T10:55:30.211Z,1.80
2022-12-28T10:58:33.725Z,2.40
2022-12-28T11:01:04.556Z,2.10
2022-12-28T11:03:35.577Z,2.90
2022-12-28T11:06:09.827Z,1.90
2022-12-28T11:08:37.907Z,2.00
2022-12-28T11:11:04.973Z,2.30
2022-12-28T11:13:32.017Z,2.30
2022-12-28T11:15:59.710Z,1.90
2022-12-28T11:18:26.713Z,1.70
2022-12-28T11:20:55.236Z,1.50
2022-12-28T11:23:31.837Z,2.10
2022-12-28T11:25:59.136Z,1.40
2022-12-28T11:28:26.019Z,2.00
2022-12-28T11:30:53.083Z,1.80
2022-12-28T11:33:38.306Z,1.40
2022-12-28T11:36:09.850Z,1.80
2022-12-28T11:38:44.043Z,1.30
2022-12-28T11:41:37.224Z,1.60
2022-12-28T11:44:05.510Z,1.20
2022-12-28T11:46:35.632Z,1.80
2022-12-28T11:49:04.396Z,1.50
2022-12-28T11:51:35.626Z,1.60
2022-12-28T11:54:04.427Z,1.20
2022-12-28T11:56:43.578Z,1.40
2022-12-28T11:59:33.669Z,1.20
2022-12-28T12:02:23.472Z,1.20
2022-12-28T12:04:50.335Z,1.70
2022-12-28T12:07:31.220Z,1.80
2022-12-28T12:10:34.351Z,1.70
2022-12-28T12:13:02.466Z,1.30
2022-12-28T12:15:40.472Z,1.60
2022-12-28T12:18:09.435Z,1.60
2022-12-28T12:20:39.482Z,1.30
2022-12-28T12:23:08.709Z,1.50
2022-12-28T12:25:39.618Z,1.50
2022-12-28T12:28:20.110Z,1.60
2022-12-28T12:30:47.173Z,1.60
2022-12-28T12:33:16.793Z,1.60
2022-12-28T12:35:56.829Z,1.40
2022-12-28T12:38:43.544Z,1.90
2022-12-28T12:41:32.050Z,1.30
2022-12-28T12:44:03.556Z,2.00
2022-12-28T12:47:05.472Z,1.50
2022-12-28T12:49:51.605Z,1.90
2022-12-28T12:52:49.799Z,1.90
2022-12-28T12:55:39.129Z,2.30
2022-12-28T12:58:38.689Z,1.80
2022-12-28T13:01:15.739Z,1.90
2022-12-28T13:03:47.281Z,2.10
2022-12-28T13:06:16.511Z,2.10
2022-12-28T13:09:04.949Z,2.30
2022-12-28T13:11:36.002Z,2.00
2022-12-28T13:14:03.015Z,2.30
2022-12-28T13:16:30.286Z,2.40
2022-12-28T13:18:58.335Z,2.30
2022-12-28T13:21:27.310Z,2.40
2022-12-28T13:23:54.392Z,2.20
2022-12-28T13:26:28.139Z,1.80
2022-12-28T13:29:02.814Z,2.20
2022-12-28T13:31:36.522Z,2.70
2022-12-28T13:34:24.040Z,2.30
2022-12-28T13:36:59.433Z,2.00
2022-12-28T13:39:28.367Z,2.40
2022-12-28T13:41:56.299Z,2.10
2022-12-28T13:44:28.145Z,2.00
2022-12-28T13:47:04.882Z,1.80
2022-12-28T13:49:35.497Z,1.70
2022-12-28T13:52:07.019Z,2.00
2022-12-28T13:54:33.899Z,2.20
2022-12-28T13:57:20.834Z,1.90
2022-12-28T13:59:47.849Z,2.10
2022-12-28T14:02:16.774Z,1.90
2022-12-28T14:04:52.741Z,2.70
2022-12-28T14:07:20.583Z,1.90
2022-12-28T14:09:47.513Z,2.20
2022-12-28T14:12:14.595Z,2.60
2022-12-28T14:14:41.689Z,2.50
2022-12-28T14:17:08.668Z,2.30
2022-12-28T14:19:35.590Z,2.50
2022-12-28T14:22:02.572Z,1.30
2022-12-28T14:24:29.598Z,1.50
2022-12-28T14:26:58.139Z,2.00
2022-12-28T14:29:32.824Z,2.30
2022-12-28T14:32:07.081Z,2.30
2022-12-28T14:34:34.950Z,2.50
2022-12-28T14:37:02.329Z,2.20
2022-12-28T14:39:31.546Z,2.60
2022-12-28T14:41:58.776Z,2.90
2022-12-28T14:44:28.701Z,2.30
2022-12-28T14:46:55.874Z,2.70
2022-12-28T14:49:28.929Z,2.30
2022-12-28T14:51:56.388Z,1.80
2022-12-28T14:54:26.807Z,2.30
2022-12-28T14:56:55.034Z,3.00
2022-12-28T14:59:40.100Z,2.80
2022-12-28T15:02:33.316Z,2.30
2022-12-28T15:05:01.470Z,3.50
2022-12-28T15:07:28.364Z,2.40
2022-12-28T15:09:55.303Z,2.90
2022-12-28T15:12:22.885Z,2.90
2022-12-28T15:14:50.121Z,3.10
2022-12-28T15:17:17.073Z,3.10
2022-12-28T15:19:45.222Z,3.30
2022-12-28T15:22:12.727Z,2.20
2022-12-28T15:24:41.492Z,3.80
2022-12-28T15:27:08.712Z,2.90
2022-12-28T15:32:22.458Z,2.30
2022-12-28T15:34:49.393Z,3.20
2022-12-28T15:37:16.311Z,2.90
2022-12-28T15:39:43.212Z,2.00
2022-12-28T15:42:10.106Z,3.90
2022-12-28T15:44:37.177Z,4.20
2022-12-28T15:47:04.152Z,3.50
2022-12-28T15:49:31.021Z,3.30
2022-12-28T15:51:58.009Z,3.70
2022-12-28T15:54:24.945Z,4.70
2022-12-28T15:56:53.368Z,4.80
2022-12-28T15:59:20.521Z,5.30
2022-12-28T16:01:48.309Z,5.20
2022-12-28T16:04:15.458Z,5.00
2022-12-28T16:06:45.115Z,5.50
2022-12-28T16:09:13.034Z,5.60
2022-12-28T16:11:40.233Z,6.20
2022-12-28T16:14:07.753Z,5.00
2022-12-28T16:16:36.407Z,5.40
2022-12-28T16:19:03.630Z,4.20
2022-12-28T16:21:30.624Z,5.40
2022-12-28T16:23:58.887Z,5.60
2022-12-28T16:26:25.816Z,5.10
2022-12-28T16:28:52.819Z,5.60
2022-12-28T16:31:24.007Z,5.20
2022-12-28T16:33:55.120Z,4.70
2022-12-28T16:36:22.319Z,4.90
2022-12-28T16:38:49.279Z,5.60
2022-12-28T16:41:16.339Z,5.40
2022-12-28T16:43:43.217Z,3.90
2022-12-28T16:46:10.403Z,6.40
2022-12-28T16:48:37.591Z,6.20
2022-12-28T16:51:04.638Z,4.40
2022-12-28T16:53:33.629Z,5.20
2022-12-28T16:56:01.438Z,5.20
2022-12-28T16:58:29.277Z,5.20
2022-12-28T17:00:56.636Z,5.30
2022-12-28T17:03:27.912Z,5.40
2022-12-28T17:05:54.898Z,5.10
2022-12-28T17:08:21.792Z,6.40
2022-12-28T17:10:48.689Z,5.60
2022-12-28T17:13:16.457Z,5.70
2022-12-28T17:15:45.957Z,5.20
2022-12-28T17:18:13.681Z,6.60
2022-12-28T17:20:41.039Z,7.20
2022-12-28T17:23:08.013Z,6.80
2022-12-28T17:25:35.375Z,7.00
2022-12-28T17:28:02.552Z,7.00
2022-12-28T17:30:29.746Z,6.00
2022-12-28T17:32:56.714Z,6.40
2022-12-28T17:35:23.848Z,5.50
2022-12-28T17:37:50.959Z,6.80
2022-12-28T17:40:17.925Z,7.00
2022-12-28T17:42:44.956Z,5.90
2022-12-28T17:45:12.343Z,7.40
2022-12-28T17:47:39.312Z,7.20
2022-12-28T17:50:06.904Z,5.30
2022-12-28T17:52:33.763Z,5.10
2022-12-28T17:55:00.611Z,6.00
2022-12-28T17:57:27.538Z,5.70
2022-12-28T17:59:54.450Z,5.60
2022-12-28T18:02:21.517Z,6.10
2022-12-28T18:04:48.672Z,6.40
2022-12-28T18:07:15.552Z,7.10
2022-12-28T18:09:42.595Z,4.80
2022-12-28T18:12:09.553Z,5.40
2022-12-28T18:14:36.479Z,5.30
2022-12-28T18:17:03.822Z,4.90
2022-12-28T18:19:30.800Z,5.30
2022-12-28T18:21:57.676Z,4.90
2022-12-28T18:24:24.779Z,8.00
2022-12-28T18:26:51.650Z,5.00
2022-12-28T18:29:18.660Z,4.40
2022-12-28T18:31:45.734Z,5.20
2022-12-28T18:34:12.734Z,6.10
2022-12-28T18:36:39.659Z,5.10
2022-12-28T18:39:06.676Z,4.50
2022-12-28T18:41:34.511Z,4.70
2022-12-28T18:44:02.999Z,4.80
2022-12-28T18:46:30.342Z,3.80
2022-12-28T18:48:57.411Z,4.60
2022-12-28T18:51:24.445Z,3.80
2022-12-28T18:53:51.573Z,5.30
2022-12-28T18:56:19.780Z,4.90
2022-12-28T18:58:51.400Z,3.40
2022-12-28T19:04:10.055Z,5.20
2022-12-28T19:06:37.525Z,3.50
2022-12-28T19:09:04.633Z,4.20
2022-12-28T19:11:31.751Z,3.50
2022-12-28T19:13:58.755Z,3.70
2022-12-28T19:16:31.019Z,3.00
2022-12-28T19:18:59.325Z,4.10
2022-12-28T19:21:30.206Z,3.10
2022-12-28T19:24:04.685Z,4.20
2022-12-28T19:26:32.090Z,3.50
2022-12-28T19:28:59.397Z,4.50
2022-12-28T19:31:26.995Z,4.00
2022-12-28T19:33:54.083Z,4.40
2022-12-28T19:36:21.522Z,3.90
2022-12-28T19:38:48.630Z,3.70
2022-12-28T19:41:16.319Z,3.60
2022-12-28T19:43:43.649Z,3.80
2022-12-28T19:46:12.965Z,3.70
2022-12-28T19:48:40.047Z,3.70
2022-12-28T19:51:09.698Z,3.30
2022-12-28T19:53:37.573Z,3.60
2022-12-28T19:56:09.261Z,4.50
2022-12-28T19:58:39.388Z,3.50
2022-12-28T20:01:08.074Z,3.90
2022-12-28T20:03:35.212Z,3.70
2022-12-28T20:06:09.362Z,4.00
2022-12-28T20:08:36.373Z,3.60
2022-12-28T20:11:03.744Z,4.60
2022-12-28T20:13:31.572Z,3.70
2022-12-28T20:15:58.761Z,4.70
2022-12-28T20:18:25.814Z,4.10
2022-12-28T20:21:18.670Z,4.70
2022-12-28T20:23:39.839Z,3.90
2022-12-28T20:26:06.853Z,3.40
2022-12-28T20:28:34.587Z,3.90
2022-12-28T20:31:04.674Z,3.00
2022-12-28T20:33:38.061Z,4.00
2022-12-28T20:36:09.140Z,3.80
2022-12-28T20:38:39.837Z,3.20
2022-12-28T20:41:37.132Z,2.80
2022-12-28T20:44:07.451Z,2.90
2022-12-28T20:46:37.861Z,3.20
2022-12-28T20:49:07.866Z,3.60
2022-12-28T20:51:38.835Z,4.50
2022-12-28T20:54:09.808Z,3.00
2022-12-28T20:56:41.938Z,3.30
2022-12-28T20:59:11.776Z,2.40
2022-12-28T21:01:41.927Z,3.20
2022-12-28T21:04:11.442Z,2.90
2022-12-28T21:06:40.858Z,3.40
2022-12-28T21:09:10.180Z,2.90
2022-12-28T21:11:38.984Z,3.50
2022-12-28T21:14:08.869Z,3.00
2022-12-28T21:16:37.822Z,4.00
2022-12-28T21:19:07.144Z,3.40
2022-12-28T21:21:36.501Z,4.20
2022-12-28T21:24:06.351Z,3.00
2022-12-28T21:26:35.884Z,2.80
2022-12-28T21:36:39.792Z,2.20
2022-12-28T21:39:06.807Z,3.70
2022-12-28T21:41:49.042Z,3.30
2022-12-28T21:44:22.819Z,2.10
2022-12-28T21:46:51.356Z,3.10
2022-12-28T21:49:19.341Z,2.80
2022-12-28T21:51:46.391Z,2.10
2022-12-28T21:54:14.495Z,3.20
2022-12-28T21:56:42.632Z,3.00
2022-12-28T21:59:11.195Z,3.40
2022-12-28T22:01:57.563Z,3.20
2022-12-28T22:04:43.712Z,3.50
2022-12-28T22:07:11.675Z,2.40
2022-12-28T22:09:58.080Z,2.80
2022-12-28T22:12:34.795Z,3.20
2022-12-28T22:15:32.135Z,2.20
2022-12-28T22:18:02.336Z,2.40
2022-12-28T22:20:29.411Z,2.60
2022-12-28T22:22:58.444Z,2.30
2022-12-28T22:25:26.023Z,2.40
2022-12-28T22:27:52.922Z,2.80
2022-12-28T22:30:20.140Z,2.80
2022-12-28T22:32:47.032Z,2.90
2022-12-28T22:35:14.222Z,2.30
2022-12-28T22:37:43.012Z,2.00
2022-12-28T22:40:10.712Z,2.90
2022-12-28T22:42:43.540Z,1.70
2022-12-28T22:45:14.804Z,2.20
2022-12-28T22:47:41.710Z,2.00
2022-12-28T22:50:10.209Z,4.20
2022-12-28T22:52:37.137Z,2.40
2022-12-28T22:55:04.728Z,2.30
2022-12-28T22:57:31.662Z,2.70
2022-12-28T22:59:58.637Z,2.30
2022-12-28T23:02:25.557Z,1.50
2022-12-28T23:04:52.649Z,2.10
2022-12-28T23:07:19.573Z,2.80
2022-12-28T23:09:46.498Z,1.80
2022-12-28T23:12:13.381Z,2.30
2022-12-28T23:14:59.166Z,2.50
2022-12-28T23:17:26.818Z,2.10
2022-12-28T23:20:12.576Z,1.80
2022-12-28T23:22:58.473Z,2.00
2022-12-28T23:25:44.368Z,2.50
2022-12-28T23:28:13.009Z,1.60
2022-12-28T23:30:41.705Z,2.30
2022-12-28T23:33:08.714Z,2.50
2022-12-28T23:35:35.520Z,2.70
2022-12-28T23:38:02.352Z,2.50
2022-12-28T23:40:29.307Z,2.00
2022-12-28T23:42:56.459Z,1.90
2022-12-28T23:45:23.407Z,2.30
2022-12-28T23:47:52.087Z,2.80
2022-12-28T23:50:19.493Z,2.80
2022-12-28T23:52:46.580Z,2.50
2022-12-28T23:55:13.547Z,2.30
2022-12-28T23:57:40.400Z,2.20
